<?xml version="1.0" encoding="UTF-8" standalone="no" ?>
<gpx xmlns="http://www.topografix.com/GPX/1/1" xmlns:xsi="http://www.w3.org/2001/XMLSchema-instance" xsi:schemaLocation="http://www.topografix.com/GPX/1/1 http://www.topografix.com/GPX/1/1/gpx.xsd" version="1.1" creator="VisuGPX - https://www.visugpx.com">
  <metadata>
    <name>Le trou de la rousse</name>
    <desc><![CDATA[Parking pré orcel, trou de la Rousse, Col de l'Alpe]]></desc>
  </metadata>
  <trk>
    <name><![CDATA[trou de la rousse]]></name>
    <desc><![CDATA[<h1>OruxMaps</h1><br /><hr align="center" width="480" style="height: 2px; width: 517px"/><h2>Nom: trou de la rousse</h2><br /><p>Temps de départ: 10/06/2013 09:20</p><p>Temps d'arrivée: 10/06/2013 11:31</p><p>Distance: 5,5 km (02:11)</p><p>Temps déplacement: 01:12</p><p>Vitesse moyenne: 2,5 km/h</p><p>Vitesse moyenne: 4,6 km/h</p><p>Vitess Max.: 4,9 km/h</p><p>Altitude minimale: 1386 m</p><p>Altitude maximale: 1826 m</p><p>Vitesse d'élévation: 467,9 m/h</p><p>Vitesse de descente: -548,2 m/h</p><p>Gain Altitude: 506 m</p><p>Perte Altitude: -466 m</p><p>Temps d'élévation: 01:04</p><p>Temps de descente: 00:51</p><hr align="center" width="480" style="height: 2px; width: 517px"/>]]></desc>
    <trkseg>
      <trkpt lat="45.42102" lon="5.93724">
        <ele>1438</ele>
        <time>2013-10-06T07:20:14Z</time>
      </trkpt>
      <trkpt lat="45.42083" lon="5.93712">
        <ele>1440</ele>
        <time>2013-10-06T07:20:35Z</time>
      </trkpt>
      <trkpt lat="45.42065" lon="5.93709">
        <ele>1431</ele>
        <time>2013-10-06T07:20:51Z</time>
      </trkpt>
      <trkpt lat="45.42047" lon="5.93704">
        <ele>1430</ele>
        <time>2013-10-06T07:21:09Z</time>
      </trkpt>
      <trkpt lat="45.4203" lon="5.93694">
        <ele>1430</ele>
        <time>2013-10-06T07:21:27Z</time>
      </trkpt>
      <trkpt lat="45.42011" lon="5.93695">
        <ele>1430</ele>
        <time>2013-10-06T07:21:43Z</time>
      </trkpt>
      <trkpt lat="45.41998" lon="5.93678">
        <ele>1429</ele>
        <time>2013-10-06T07:21:59Z</time>
      </trkpt>
      <trkpt lat="45.41982" lon="5.93663">
        <ele>1442</ele>
        <time>2013-10-06T07:22:12Z</time>
      </trkpt>
      <trkpt lat="45.41966" lon="5.9365">
        <ele>1444</ele>
        <time>2013-10-06T07:22:26Z</time>
      </trkpt>
      <trkpt lat="45.41949" lon="5.93642">
        <ele>1444</ele>
        <time>2013-10-06T07:22:40Z</time>
      </trkpt>
      <trkpt lat="45.41931" lon="5.93635">
        <ele>1444</ele>
        <time>2013-10-06T07:22:58Z</time>
      </trkpt>
      <trkpt lat="45.41913" lon="5.93642">
        <ele>1443</ele>
        <time>2013-10-06T07:23:09Z</time>
      </trkpt>
      <trkpt lat="45.41896" lon="5.9365">
        <ele>1442</ele>
        <time>2013-10-06T07:23:22Z</time>
      </trkpt>
      <trkpt lat="45.41877" lon="5.93652">
        <ele>1444</ele>
        <time>2013-10-06T07:23:37Z</time>
      </trkpt>
      <trkpt lat="45.41859" lon="5.93654">
        <ele>1443</ele>
        <time>2013-10-06T07:23:53Z</time>
      </trkpt>
      <trkpt lat="45.4184" lon="5.93655">
        <ele>1439</ele>
        <time>2013-10-06T07:24:06Z</time>
      </trkpt>
      <trkpt lat="45.41822" lon="5.93653">
        <ele>1439</ele>
        <time>2013-10-06T07:24:26Z</time>
      </trkpt>
      <trkpt lat="45.41804" lon="5.93656">
        <ele>1441</ele>
        <time>2013-10-06T07:24:36Z</time>
      </trkpt>
      <trkpt lat="45.41786" lon="5.93648">
        <ele>1441</ele>
        <time>2013-10-06T07:24:50Z</time>
      </trkpt>
      <trkpt lat="45.41769" lon="5.9364">
        <ele>1440</ele>
        <time>2013-10-06T07:25:06Z</time>
      </trkpt>
      <trkpt lat="45.41753" lon="5.93624">
        <ele>1444</ele>
        <time>2013-10-06T07:25:19Z</time>
      </trkpt>
      <trkpt lat="45.41736" lon="5.93614">
        <ele>1434</ele>
        <time>2013-10-06T07:25:36Z</time>
      </trkpt>
      <trkpt lat="45.41718" lon="5.93605">
        <ele>1433</ele>
        <time>2013-10-06T07:25:51Z</time>
      </trkpt>
      <trkpt lat="45.41699" lon="5.93596">
        <ele>1432</ele>
        <time>2013-10-06T07:26:09Z</time>
      </trkpt>
      <trkpt lat="45.41682" lon="5.93587">
        <ele>1432</ele>
        <time>2013-10-06T07:26:22Z</time>
      </trkpt>
      <trkpt lat="45.41666" lon="5.93576">
        <ele>1438</ele>
        <time>2013-10-06T07:26:40Z</time>
      </trkpt>
      <trkpt lat="45.41649" lon="5.93565">
        <ele>1442</ele>
        <time>2013-10-06T07:26:55Z</time>
      </trkpt>
      <trkpt lat="45.41631" lon="5.93561">
        <ele>1442</ele>
        <time>2013-10-06T07:27:08Z</time>
      </trkpt>
      <trkpt lat="45.41615" lon="5.93547">
        <ele>1443</ele>
        <time>2013-10-06T07:27:19Z</time>
      </trkpt>
      <trkpt lat="45.41597" lon="5.93539">
        <ele>1444</ele>
        <time>2013-10-06T07:27:35Z</time>
      </trkpt>
      <trkpt lat="45.41579" lon="5.93532">
        <ele>1432</ele>
        <time>2013-10-06T07:27:51Z</time>
      </trkpt>
      <trkpt lat="45.4156" lon="5.93527">
        <ele>1430</ele>
        <time>2013-10-06T07:28:03Z</time>
      </trkpt>
      <trkpt lat="45.41543" lon="5.93516">
        <ele>1429</ele>
        <time>2013-10-06T07:28:18Z</time>
      </trkpt>
      <trkpt lat="45.41528" lon="5.93501">
        <ele>1428</ele>
        <time>2013-10-06T07:28:36Z</time>
      </trkpt>
      <trkpt lat="45.41513" lon="5.93485">
        <ele>1447</ele>
        <time>2013-10-06T07:28:52Z</time>
      </trkpt>
      <trkpt lat="45.41496" lon="5.93475">
        <ele>1432</ele>
        <time>2013-10-06T07:29:05Z</time>
      </trkpt>
      <trkpt lat="45.41481" lon="5.9346">
        <ele>1435</ele>
        <time>2013-10-06T07:29:20Z</time>
      </trkpt>
      <trkpt lat="45.41463" lon="5.93451">
        <ele>1434</ele>
        <time>2013-10-06T07:29:35Z</time>
      </trkpt>
      <trkpt lat="45.41448" lon="5.93434">
        <ele>1434</ele>
        <time>2013-10-06T07:29:49Z</time>
      </trkpt>
      <trkpt lat="45.41431" lon="5.93422">
        <ele>1434</ele>
        <time>2013-10-06T07:30:00Z</time>
      </trkpt>
      <trkpt lat="45.41416" lon="5.93407">
        <ele>1437</ele>
        <time>2013-10-06T07:30:20Z</time>
      </trkpt>
      <trkpt lat="45.414" lon="5.93389">
        <ele>1440</ele>
        <time>2013-10-06T07:30:35Z</time>
      </trkpt>
      <trkpt lat="45.41386" lon="5.93373">
        <ele>1442</ele>
        <time>2013-10-06T07:30:52Z</time>
      </trkpt>
      <trkpt lat="45.41369" lon="5.93362">
        <ele>1443</ele>
        <time>2013-10-06T07:31:07Z</time>
      </trkpt>
      <trkpt lat="45.41352" lon="5.93352">
        <ele>1444</ele>
        <time>2013-10-06T07:31:21Z</time>
      </trkpt>
      <trkpt lat="45.41334" lon="5.93345">
        <ele>1447</ele>
        <time>2013-10-06T07:31:37Z</time>
      </trkpt>
      <trkpt lat="45.41317" lon="5.93334">
        <ele>1441</ele>
        <time>2013-10-06T07:31:49Z</time>
      </trkpt>
      <trkpt lat="45.41299" lon="5.93324">
        <ele>1462</ele>
        <time>2013-10-06T07:32:07Z</time>
      </trkpt>
      <trkpt lat="45.41281" lon="5.93326">
        <ele>1461</ele>
        <time>2013-10-06T07:32:21Z</time>
      </trkpt>
      <trkpt lat="45.41262" lon="5.93329">
        <ele>1455</ele>
        <time>2013-10-06T07:32:34Z</time>
      </trkpt>
      <trkpt lat="45.41244" lon="5.93326">
        <ele>1450</ele>
        <time>2013-10-06T07:32:46Z</time>
      </trkpt>
      <trkpt lat="45.41225" lon="5.93324">
        <ele>1454</ele>
        <time>2013-10-06T07:33:06Z</time>
      </trkpt>
      <trkpt lat="45.41206" lon="5.93318">
        <ele>1454</ele>
        <time>2013-10-06T07:33:22Z</time>
      </trkpt>
      <trkpt lat="45.4119" lon="5.93307">
        <ele>1454</ele>
        <time>2013-10-06T07:33:42Z</time>
      </trkpt>
      <trkpt lat="45.41172" lon="5.93299">
        <ele>1455</ele>
        <time>2013-10-06T07:33:58Z</time>
      </trkpt>
      <trkpt lat="45.41155" lon="5.93287">
        <ele>1445</ele>
        <time>2013-10-06T07:34:15Z</time>
      </trkpt>
      <trkpt lat="45.41137" lon="5.93278">
        <ele>1445</ele>
        <time>2013-10-06T07:34:28Z</time>
      </trkpt>
      <trkpt lat="45.41119" lon="5.93272">
        <ele>1442</ele>
        <time>2013-10-06T07:34:40Z</time>
      </trkpt>
      <trkpt lat="45.41101" lon="5.93265">
        <ele>1441</ele>
        <time>2013-10-06T07:34:55Z</time>
      </trkpt>
      <trkpt lat="45.41084" lon="5.93255">
        <ele>1442</ele>
        <time>2013-10-06T07:35:08Z</time>
      </trkpt>
      <trkpt lat="45.4107" lon="5.93239">
        <ele>1441</ele>
        <time>2013-10-06T07:35:27Z</time>
      </trkpt>
      <trkpt lat="45.41057" lon="5.93221">
        <ele>1440</ele>
        <time>2013-10-06T07:35:40Z</time>
      </trkpt>
      <trkpt lat="45.41039" lon="5.93216">
        <ele>1437</ele>
        <time>2013-10-06T07:36:40Z</time>
      </trkpt>
      <trkpt lat="45.41034" lon="5.9319">
        <ele>1441</ele>
        <time>2013-10-06T07:37:39Z</time>
      </trkpt>
      <trkpt lat="45.41029" lon="5.93165">
        <ele>1463</ele>
        <time>2013-10-06T07:38:19Z</time>
      </trkpt>
      <trkpt lat="45.4103" lon="5.9314">
        <ele>1468</ele>
        <time>2013-10-06T07:39:21Z</time>
      </trkpt>
      <trkpt lat="45.41036" lon="5.93115">
        <ele>1476</ele>
        <time>2013-10-06T07:40:02Z</time>
      </trkpt>
      <trkpt lat="45.41036" lon="5.93089">
        <ele>1479</ele>
        <time>2013-10-06T07:40:39Z</time>
      </trkpt>
      <trkpt lat="45.41035" lon="5.93063">
        <ele>1502</ele>
        <time>2013-10-06T07:41:23Z</time>
      </trkpt>
      <trkpt lat="45.41033" lon="5.93037">
        <ele>1506</ele>
        <time>2013-10-06T07:42:14Z</time>
      </trkpt>
      <trkpt lat="45.41032" lon="5.9301">
        <ele>1509</ele>
        <time>2013-10-06T07:43:09Z</time>
      </trkpt>
      <trkpt lat="45.41041" lon="5.92987">
        <ele>1533</ele>
        <time>2013-10-06T07:44:37Z</time>
      </trkpt>
      <trkpt lat="45.4105" lon="5.92965">
        <ele>1539</ele>
        <time>2013-10-06T07:45:49Z</time>
      </trkpt>
      <trkpt lat="45.41059" lon="5.92942">
        <ele>1546</ele>
        <time>2013-10-06T07:47:10Z</time>
      </trkpt>
      <trkpt lat="45.41074" lon="5.92956">
        <ele>1544</ele>
        <time>2013-10-06T07:47:52Z</time>
      </trkpt>
      <trkpt lat="45.4106" lon="5.92938">
        <ele>1547</ele>
        <time>2013-10-06T07:49:57Z</time>
      </trkpt>
      <trkpt lat="45.41055" lon="5.92913">
        <ele>1574</ele>
        <time>2013-10-06T07:50:56Z</time>
      </trkpt>
      <trkpt lat="45.41048" lon="5.92887">
        <ele>1577</ele>
        <time>2013-10-06T07:51:17Z</time>
      </trkpt>
      <trkpt lat="45.41041" lon="5.92863">
        <ele>1581</ele>
        <time>2013-10-06T07:51:40Z</time>
      </trkpt>
      <trkpt lat="45.41031" lon="5.92841">
        <ele>1577</ele>
        <time>2013-10-06T07:52:09Z</time>
      </trkpt>
      <trkpt lat="45.41036" lon="5.92816">
        <ele>1607</ele>
        <time>2013-10-06T07:53:05Z</time>
      </trkpt>
      <trkpt lat="45.41035" lon="5.9279">
        <ele>1611</ele>
        <time>2013-10-06T07:53:52Z</time>
      </trkpt>
      <trkpt lat="45.41041" lon="5.92765">
        <ele>1620</ele>
        <time>2013-10-06T07:54:24Z</time>
      </trkpt>
      <trkpt lat="45.4104" lon="5.92738">
        <ele>1658</ele>
        <time>2013-10-06T07:54:42Z</time>
      </trkpt>
      <trkpt lat="45.41036" lon="5.92711">
        <ele>1666</ele>
        <time>2013-10-06T07:55:09Z</time>
      </trkpt>
      <trkpt lat="45.41026" lon="5.92689">
        <ele>1664</ele>
        <time>2013-10-06T07:55:32Z</time>
      </trkpt>
      <trkpt lat="45.41017" lon="5.92666">
        <ele>1684</ele>
        <time>2013-10-06T07:55:58Z</time>
      </trkpt>
      <trkpt lat="45.41032" lon="5.92649">
        <ele>1720</ele>
        <time>2013-10-06T07:57:08Z</time>
      </trkpt>
      <trkpt lat="45.41027" lon="5.92623">
        <ele>1729</ele>
        <time>2013-10-06T07:58:57Z</time>
      </trkpt>
      <trkpt lat="45.41014" lon="5.92604">
        <ele>1727</ele>
        <time>2013-10-06T07:59:15Z</time>
      </trkpt>
      <trkpt lat="45.41006" lon="5.92571">
        <ele>1742</ele>
        <time>2013-10-06T07:59:45Z</time>
      </trkpt>
      <trkpt lat="45.41003" lon="5.92545">
        <ele>1766</ele>
        <time>2013-10-06T08:00:01Z</time>
      </trkpt>
      <trkpt lat="45.40992" lon="5.92524">
        <ele>1725</ele>
        <time>2013-10-06T08:00:18Z</time>
      </trkpt>
      <trkpt lat="45.40992" lon="5.92498">
        <ele>1769</ele>
        <time>2013-10-06T08:00:42Z</time>
      </trkpt>
      <trkpt lat="45.4099" lon="5.92472">
        <ele>1762</ele>
        <time>2013-10-06T08:02:40Z</time>
      </trkpt>
      <trkpt lat="45.40996" lon="5.92447">
        <ele>1771</ele>
        <time>2013-10-06T08:03:43Z</time>
      </trkpt>
      <trkpt lat="45.41011" lon="5.92427">
        <ele>1803</ele>
        <time>2013-10-06T08:05:33Z</time>
      </trkpt>
      <trkpt lat="45.40991" lon="5.92415">
        <ele>1799</ele>
        <time>2013-10-06T08:06:55Z</time>
      </trkpt>
      <trkpt lat="45.40987" lon="5.9239">
        <ele>1794</ele>
        <time>2013-10-06T08:08:18Z</time>
      </trkpt>
      <trkpt lat="45.40972" lon="5.92375">
        <ele>1791</ele>
        <time>2013-10-06T08:08:50Z</time>
      </trkpt>
      <trkpt lat="45.40989" lon="5.92366">
        <ele>1796</ele>
        <time>2013-10-06T08:10:59Z</time>
      </trkpt>
      <trkpt lat="45.40982" lon="5.92337">
        <ele>1801</ele>
        <time>2013-10-06T08:16:11Z</time>
      </trkpt>
      <trkpt lat="45.40993" lon="5.92317">
        <ele>1806</ele>
        <time>2013-10-06T08:19:04Z</time>
      </trkpt>
      <trkpt lat="45.40982" lon="5.92296">
        <ele>1802</ele>
        <time>2013-10-06T08:20:49Z</time>
      </trkpt>
      <trkpt lat="45.40964" lon="5.9229">
        <ele>1801</ele>
        <time>2013-10-06T08:21:12Z</time>
      </trkpt>
      <trkpt lat="45.40946" lon="5.92297">
        <ele>1800</ele>
        <time>2013-10-06T08:21:29Z</time>
      </trkpt>
      <trkpt lat="45.40928" lon="5.92304">
        <ele>1798</ele>
        <time>2013-10-06T08:21:49Z</time>
      </trkpt>
      <trkpt lat="45.4091" lon="5.92306">
        <ele>1791</ele>
        <time>2013-10-06T08:22:07Z</time>
      </trkpt>
      <trkpt lat="45.40927" lon="5.92296">
        <ele>1800</ele>
        <time>2013-10-06T08:32:31Z</time>
      </trkpt>
      <trkpt lat="45.40945" lon="5.92292">
        <ele>1801</ele>
        <time>2013-10-06T08:32:54Z</time>
      </trkpt>
      <trkpt lat="45.40962" lon="5.92286">
        <ele>1801</ele>
        <time>2013-10-06T08:33:13Z</time>
      </trkpt>
      <trkpt lat="45.40979" lon="5.92297">
        <ele>1802</ele>
        <time>2013-10-06T08:33:30Z</time>
      </trkpt>
      <trkpt lat="45.40996" lon="5.92307">
        <ele>1804</ele>
        <time>2013-10-06T08:33:48Z</time>
      </trkpt>
      <trkpt lat="45.41009" lon="5.92326">
        <ele>1806</ele>
        <time>2013-10-06T08:34:05Z</time>
      </trkpt>
      <trkpt lat="45.41025" lon="5.9234">
        <ele>1811</ele>
        <time>2013-10-06T08:34:33Z</time>
      </trkpt>
      <trkpt lat="45.41038" lon="5.92358">
        <ele>1810</ele>
        <time>2013-10-06T08:34:49Z</time>
      </trkpt>
      <trkpt lat="45.41053" lon="5.92372">
        <ele>1810</ele>
        <time>2013-10-06T08:35:07Z</time>
      </trkpt>
      <trkpt lat="45.41071" lon="5.9238">
        <ele>1811</ele>
        <time>2013-10-06T08:35:26Z</time>
      </trkpt>
      <trkpt lat="45.4109" lon="5.92385">
        <ele>1806</ele>
        <time>2013-10-06T08:35:45Z</time>
      </trkpt>
      <trkpt lat="45.41097" lon="5.92409">
        <ele>1810</ele>
        <time>2013-10-06T08:36:01Z</time>
      </trkpt>
      <trkpt lat="45.41103" lon="5.92434">
        <ele>1815</ele>
        <time>2013-10-06T08:36:19Z</time>
      </trkpt>
      <trkpt lat="45.4111" lon="5.92458">
        <ele>1814</ele>
        <time>2013-10-06T08:36:34Z</time>
      </trkpt>
      <trkpt lat="45.41114" lon="5.92485">
        <ele>1814</ele>
        <time>2013-10-06T08:36:52Z</time>
      </trkpt>
      <trkpt lat="45.41112" lon="5.92511">
        <ele>1816</ele>
        <time>2013-10-06T08:37:10Z</time>
      </trkpt>
      <trkpt lat="45.41104" lon="5.92535">
        <ele>1816</ele>
        <time>2013-10-06T08:37:30Z</time>
      </trkpt>
      <trkpt lat="45.41098" lon="5.9256">
        <ele>1816</ele>
        <time>2013-10-06T08:37:44Z</time>
      </trkpt>
      <trkpt lat="45.41093" lon="5.92585">
        <ele>1814</ele>
        <time>2013-10-06T08:38:01Z</time>
      </trkpt>
      <trkpt lat="45.41087" lon="5.9261">
        <ele>1809</ele>
        <time>2013-10-06T08:38:22Z</time>
      </trkpt>
      <trkpt lat="45.41094" lon="5.92633">
        <ele>1804</ele>
        <time>2013-10-06T08:38:37Z</time>
      </trkpt>
      <trkpt lat="45.41095" lon="5.92659">
        <ele>1800</ele>
        <time>2013-10-06T08:38:56Z</time>
      </trkpt>
      <trkpt lat="45.41108" lon="5.9268">
        <ele>1779</ele>
        <time>2013-10-06T08:39:50Z</time>
      </trkpt>
      <trkpt lat="45.41127" lon="5.92686">
        <ele>1776</ele>
        <time>2013-10-06T08:40:11Z</time>
      </trkpt>
      <trkpt lat="45.41143" lon="5.92675">
        <ele>1779</ele>
        <time>2013-10-06T08:40:34Z</time>
      </trkpt>
      <trkpt lat="45.41157" lon="5.92658">
        <ele>1794</ele>
        <time>2013-10-06T08:40:55Z</time>
      </trkpt>
      <trkpt lat="45.41173" lon="5.92646">
        <ele>1787</ele>
        <time>2013-10-06T08:41:12Z</time>
      </trkpt>
      <trkpt lat="45.41188" lon="5.9263">
        <ele>1788</ele>
        <time>2013-10-06T08:41:33Z</time>
      </trkpt>
      <trkpt lat="45.41203" lon="5.92617">
        <ele>1787</ele>
        <time>2013-10-06T08:41:54Z</time>
      </trkpt>
      <trkpt lat="45.41221" lon="5.92612">
        <ele>1784</ele>
        <time>2013-10-06T08:42:11Z</time>
      </trkpt>
      <trkpt lat="45.41237" lon="5.92599">
        <ele>1782</ele>
        <time>2013-10-06T08:42:37Z</time>
      </trkpt>
      <trkpt lat="45.41255" lon="5.92592">
        <ele>1775</ele>
        <time>2013-10-06T08:42:55Z</time>
      </trkpt>
      <trkpt lat="45.41269" lon="5.92574">
        <ele>1774</ele>
        <time>2013-10-06T08:43:22Z</time>
      </trkpt>
      <trkpt lat="45.41287" lon="5.92566">
        <ele>1771</ele>
        <time>2013-10-06T08:43:40Z</time>
      </trkpt>
      <trkpt lat="45.41305" lon="5.92561">
        <ele>1769</ele>
        <time>2013-10-06T08:44:00Z</time>
      </trkpt>
      <trkpt lat="45.41315" lon="5.92584">
        <ele>1766</ele>
        <time>2013-10-06T08:44:33Z</time>
      </trkpt>
      <trkpt lat="45.41332" lon="5.92588">
        <ele>1764</ele>
        <time>2013-10-06T08:45:34Z</time>
      </trkpt>
      <trkpt lat="45.4135" lon="5.92592">
        <ele>1764</ele>
        <time>2013-10-06T08:45:58Z</time>
      </trkpt>
      <trkpt lat="45.41368" lon="5.926">
        <ele>1764</ele>
        <time>2013-10-06T08:46:18Z</time>
      </trkpt>
      <trkpt lat="45.41382" lon="5.92616">
        <ele>1764</ele>
        <time>2013-10-06T08:46:41Z</time>
      </trkpt>
      <trkpt lat="45.41399" lon="5.92626">
        <ele>1765</ele>
        <time>2013-10-06T08:47:05Z</time>
      </trkpt>
      <trkpt lat="45.41413" lon="5.9261">
        <ele>1764</ele>
        <time>2013-10-06T08:47:25Z</time>
      </trkpt>
      <trkpt lat="45.41432" lon="5.92611">
        <ele>1762</ele>
        <time>2013-10-06T08:47:50Z</time>
      </trkpt>
      <trkpt lat="45.41449" lon="5.92621">
        <ele>1762</ele>
        <time>2013-10-06T08:48:31Z</time>
      </trkpt>
      <trkpt lat="45.41467" lon="5.92626">
        <ele>1761</ele>
        <time>2013-10-06T08:49:07Z</time>
      </trkpt>
      <trkpt lat="45.41479" lon="5.92645">
        <ele>1764</ele>
        <time>2013-10-06T08:49:34Z</time>
      </trkpt>
      <trkpt lat="45.41497" lon="5.92653">
        <ele>1766</ele>
        <time>2013-10-06T08:49:55Z</time>
      </trkpt>
      <trkpt lat="45.41515" lon="5.92659">
        <ele>1764</ele>
        <time>2013-10-06T08:50:11Z</time>
      </trkpt>
      <trkpt lat="45.4153" lon="5.92671">
        <ele>1774</ele>
        <time>2013-10-06T08:50:30Z</time>
      </trkpt>
      <trkpt lat="45.41546" lon="5.92685">
        <ele>1774</ele>
        <time>2013-10-06T08:50:57Z</time>
      </trkpt>
      <trkpt lat="45.41561" lon="5.92698">
        <ele>1775</ele>
        <time>2013-10-06T08:51:29Z</time>
      </trkpt>
      <trkpt lat="45.41576" lon="5.92714">
        <ele>1778</ele>
        <time>2013-10-06T08:51:57Z</time>
      </trkpt>
      <trkpt lat="45.41589" lon="5.9273">
        <ele>1782</ele>
        <time>2013-10-06T08:52:26Z</time>
      </trkpt>
      <trkpt lat="45.41605" lon="5.92744">
        <ele>1783</ele>
        <time>2013-10-06T08:52:51Z</time>
      </trkpt>
      <trkpt lat="45.41622" lon="5.92755">
        <ele>1791</ele>
        <time>2013-10-06T08:53:14Z</time>
      </trkpt>
      <trkpt lat="45.41638" lon="5.92768">
        <ele>1791</ele>
        <time>2013-10-06T08:53:38Z</time>
      </trkpt>
      <trkpt lat="45.41655" lon="5.92778">
        <ele>1791</ele>
        <time>2013-10-06T08:53:58Z</time>
      </trkpt>
      <trkpt lat="45.4167" lon="5.92793">
        <ele>1795</ele>
        <time>2013-10-06T08:54:17Z</time>
      </trkpt>
      <trkpt lat="45.41686" lon="5.92805">
        <ele>1796</ele>
        <time>2013-10-06T08:54:38Z</time>
      </trkpt>
      <trkpt lat="45.41699" lon="5.92823">
        <ele>1797</ele>
        <time>2013-10-06T08:55:01Z</time>
      </trkpt>
      <trkpt lat="45.41704" lon="5.92849">
        <ele>1796</ele>
        <time>2013-10-06T08:56:42Z</time>
      </trkpt>
      <trkpt lat="45.4171" lon="5.92874">
        <ele>1796</ele>
        <time>2013-10-06T08:57:01Z</time>
      </trkpt>
      <trkpt lat="45.41713" lon="5.929">
        <ele>1795</ele>
        <time>2013-10-06T08:57:20Z</time>
      </trkpt>
      <trkpt lat="45.41721" lon="5.92922">
        <ele>1788</ele>
        <time>2013-10-06T08:57:41Z</time>
      </trkpt>
      <trkpt lat="45.41725" lon="5.92948">
        <ele>1787</ele>
        <time>2013-10-06T08:57:59Z</time>
      </trkpt>
      <trkpt lat="45.41728" lon="5.92974">
        <ele>1785</ele>
        <time>2013-10-06T08:58:16Z</time>
      </trkpt>
      <trkpt lat="45.41736" lon="5.92998">
        <ele>1783</ele>
        <time>2013-10-06T08:58:31Z</time>
      </trkpt>
      <trkpt lat="45.41734" lon="5.93025">
        <ele>1773</ele>
        <time>2013-10-06T08:58:52Z</time>
      </trkpt>
      <trkpt lat="45.4173" lon="5.93051">
        <ele>1769</ele>
        <time>2013-10-06T08:59:13Z</time>
      </trkpt>
      <trkpt lat="45.41734" lon="5.93078">
        <ele>1767</ele>
        <time>2013-10-06T08:59:31Z</time>
      </trkpt>
      <trkpt lat="45.41739" lon="5.93102">
        <ele>1758</ele>
        <time>2013-10-06T08:59:48Z</time>
      </trkpt>
      <trkpt lat="45.41751" lon="5.93122">
        <ele>1758</ele>
        <time>2013-10-06T09:00:12Z</time>
      </trkpt>
      <trkpt lat="45.41768" lon="5.93117">
        <ele>1758</ele>
        <time>2013-10-06T09:00:49Z</time>
      </trkpt>
      <trkpt lat="45.41768" lon="5.93143">
        <ele>1755</ele>
        <time>2013-10-06T09:01:13Z</time>
      </trkpt>
      <trkpt lat="45.41779" lon="5.93164">
        <ele>1753</ele>
        <time>2013-10-06T09:01:43Z</time>
      </trkpt>
      <trkpt lat="45.41772" lon="5.93188">
        <ele>1734</ele>
        <time>2013-10-06T09:01:59Z</time>
      </trkpt>
      <trkpt lat="45.41772" lon="5.93215">
        <ele>1727</ele>
        <time>2013-10-06T09:03:06Z</time>
      </trkpt>
      <trkpt lat="45.41768" lon="5.93242">
        <ele>1723</ele>
        <time>2013-10-06T09:03:24Z</time>
      </trkpt>
      <trkpt lat="45.41777" lon="5.93264">
        <ele>1698</ele>
        <time>2013-10-06T09:04:13Z</time>
      </trkpt>
      <trkpt lat="45.41779" lon="5.93291">
        <ele>1689</ele>
        <time>2013-10-06T09:04:36Z</time>
      </trkpt>
      <trkpt lat="45.41792" lon="5.93272">
        <ele>1692</ele>
        <time>2013-10-06T09:05:01Z</time>
      </trkpt>
      <trkpt lat="45.4181" lon="5.93273">
        <ele>1690</ele>
        <time>2013-10-06T09:05:43Z</time>
      </trkpt>
      <trkpt lat="45.41815" lon="5.93298">
        <ele>1684</ele>
        <time>2013-10-06T09:06:08Z</time>
      </trkpt>
      <trkpt lat="45.41834" lon="5.93297">
        <ele>1676</ele>
        <time>2013-10-06T09:06:38Z</time>
      </trkpt>
      <trkpt lat="45.41847" lon="5.93279">
        <ele>1680</ele>
        <time>2013-10-06T09:07:23Z</time>
      </trkpt>
      <trkpt lat="45.41866" lon="5.93276">
        <ele>1679</ele>
        <time>2013-10-06T09:07:43Z</time>
      </trkpt>
      <trkpt lat="45.41866" lon="5.93302">
        <ele>1673</ele>
        <time>2013-10-06T09:08:14Z</time>
      </trkpt>
      <trkpt lat="45.41884" lon="5.93308">
        <ele>1668</ele>
        <time>2013-10-06T09:08:32Z</time>
      </trkpt>
      <trkpt lat="45.41902" lon="5.93313">
        <ele>1660</ele>
        <time>2013-10-06T09:09:15Z</time>
      </trkpt>
      <trkpt lat="45.41921" lon="5.93318">
        <ele>1648</ele>
        <time>2013-10-06T09:09:33Z</time>
      </trkpt>
      <trkpt lat="45.41936" lon="5.93332">
        <ele>1647</ele>
        <time>2013-10-06T09:09:46Z</time>
      </trkpt>
      <trkpt lat="45.41953" lon="5.93341">
        <ele>1612</ele>
        <time>2013-10-06T09:10:01Z</time>
      </trkpt>
      <trkpt lat="45.41971" lon="5.93341">
        <ele>1612</ele>
        <time>2013-10-06T09:10:18Z</time>
      </trkpt>
      <trkpt lat="45.4199" lon="5.93347">
        <ele>1615</ele>
        <time>2013-10-06T09:10:33Z</time>
      </trkpt>
      <trkpt lat="45.42008" lon="5.93344">
        <ele>1621</ele>
        <time>2013-10-06T09:10:50Z</time>
      </trkpt>
      <trkpt lat="45.42027" lon="5.9334">
        <ele>1617</ele>
        <time>2013-10-06T09:11:08Z</time>
      </trkpt>
      <trkpt lat="45.42045" lon="5.93336">
        <ele>1619</ele>
        <time>2013-10-06T09:11:25Z</time>
      </trkpt>
      <trkpt lat="45.42058" lon="5.93355">
        <ele>1618</ele>
        <time>2013-10-06T09:11:45Z</time>
      </trkpt>
      <trkpt lat="45.42077" lon="5.93348">
        <ele>1627</ele>
        <time>2013-10-06T09:13:10Z</time>
      </trkpt>
      <trkpt lat="45.4209" lon="5.93368">
        <ele>1625</ele>
        <time>2013-10-06T09:13:22Z</time>
      </trkpt>
      <trkpt lat="45.42108" lon="5.93371">
        <ele>1625</ele>
        <time>2013-10-06T09:13:39Z</time>
      </trkpt>
      <trkpt lat="45.42126" lon="5.9338">
        <ele>1622</ele>
        <time>2013-10-06T09:13:55Z</time>
      </trkpt>
      <trkpt lat="45.42144" lon="5.93384">
        <ele>1622</ele>
        <time>2013-10-06T09:14:14Z</time>
      </trkpt>
      <trkpt lat="45.42236" lon="5.93397">
        <ele>1631</ele>
        <time>2013-10-06T09:15:56Z</time>
      </trkpt>
      <trkpt lat="45.42249" lon="5.93416">
        <ele>1624</ele>
        <time>2013-10-06T09:16:20Z</time>
      </trkpt>
      <trkpt lat="45.42263" lon="5.93432">
        <ele>1619</ele>
        <time>2013-10-06T09:16:33Z</time>
      </trkpt>
      <trkpt lat="45.42279" lon="5.93444">
        <ele>1617</ele>
        <time>2013-10-06T09:16:48Z</time>
      </trkpt>
      <trkpt lat="45.42296" lon="5.93455">
        <ele>1617</ele>
        <time>2013-10-06T09:17:01Z</time>
      </trkpt>
      <trkpt lat="45.42312" lon="5.93466">
        <ele>1617</ele>
        <time>2013-10-06T09:17:17Z</time>
      </trkpt>
      <trkpt lat="45.42324" lon="5.93486">
        <ele>1611</ele>
        <time>2013-10-06T09:17:32Z</time>
      </trkpt>
      <trkpt lat="45.42339" lon="5.93503">
        <ele>1605</ele>
        <time>2013-10-06T09:17:49Z</time>
      </trkpt>
      <trkpt lat="45.42355" lon="5.93517">
        <ele>1602</ele>
        <time>2013-10-06T09:18:04Z</time>
      </trkpt>
      <trkpt lat="45.42372" lon="5.93528">
        <ele>1603</ele>
        <time>2013-10-06T09:18:19Z</time>
      </trkpt>
      <trkpt lat="45.4239" lon="5.93541">
        <ele>1603</ele>
        <time>2013-10-06T09:18:34Z</time>
      </trkpt>
      <trkpt lat="45.42405" lon="5.93556">
        <ele>1600</ele>
        <time>2013-10-06T09:18:48Z</time>
      </trkpt>
      <trkpt lat="45.42418" lon="5.93576">
        <ele>1604</ele>
        <time>2013-10-06T09:19:03Z</time>
      </trkpt>
      <trkpt lat="45.42427" lon="5.93599">
        <ele>1594</ele>
        <time>2013-10-06T09:19:19Z</time>
      </trkpt>
      <trkpt lat="45.4244" lon="5.93617">
        <ele>1592</ele>
        <time>2013-10-06T09:19:33Z</time>
      </trkpt>
      <trkpt lat="45.42452" lon="5.93635">
        <ele>1591</ele>
        <time>2013-10-06T09:19:48Z</time>
      </trkpt>
      <trkpt lat="45.42463" lon="5.93656">
        <ele>1590</ele>
        <time>2013-10-06T09:20:02Z</time>
      </trkpt>
      <trkpt lat="45.42478" lon="5.93673">
        <ele>1572</ele>
        <time>2013-10-06T09:20:16Z</time>
      </trkpt>
      <trkpt lat="45.42493" lon="5.93688">
        <ele>1572</ele>
        <time>2013-10-06T09:20:31Z</time>
      </trkpt>
      <trkpt lat="45.42505" lon="5.93708">
        <ele>1582</ele>
        <time>2013-10-06T09:20:45Z</time>
      </trkpt>
      <trkpt lat="45.42521" lon="5.93718">
        <ele>1580</ele>
        <time>2013-10-06T09:21:00Z</time>
      </trkpt>
      <trkpt lat="45.42503" lon="5.93715">
        <ele>1579</ele>
        <time>2013-10-06T09:21:35Z</time>
      </trkpt>
      <trkpt lat="45.42485" lon="5.93708">
        <ele>1562</ele>
        <time>2013-10-06T09:21:50Z</time>
      </trkpt>
      <trkpt lat="45.42468" lon="5.93699">
        <ele>1561</ele>
        <time>2013-10-06T09:22:09Z</time>
      </trkpt>
      <trkpt lat="45.42452" lon="5.93686">
        <ele>1560</ele>
        <time>2013-10-06T09:22:24Z</time>
      </trkpt>
      <trkpt lat="45.42434" lon="5.93674">
        <ele>1558</ele>
        <time>2013-10-06T09:22:39Z</time>
      </trkpt>
      <trkpt lat="45.42418" lon="5.93662">
        <ele>1564</ele>
        <time>2013-10-06T09:22:58Z</time>
      </trkpt>
      <trkpt lat="45.42423" lon="5.93687">
        <ele>1555</ele>
        <time>2013-10-06T09:23:36Z</time>
      </trkpt>
      <trkpt lat="45.42434" lon="5.93708">
        <ele>1552</ele>
        <time>2013-10-06T09:23:53Z</time>
      </trkpt>
      <trkpt lat="45.42447" lon="5.93727">
        <ele>1549</ele>
        <time>2013-10-06T09:24:09Z</time>
      </trkpt>
      <trkpt lat="45.4246" lon="5.93746">
        <ele>1550</ele>
        <time>2013-10-06T09:24:25Z</time>
      </trkpt>
      <trkpt lat="45.42465" lon="5.93771">
        <ele>1527</ele>
        <time>2013-10-06T09:24:42Z</time>
      </trkpt>
      <trkpt lat="45.42448" lon="5.93761">
        <ele>1524</ele>
        <time>2013-10-06T09:24:59Z</time>
      </trkpt>
      <trkpt lat="45.42452" lon="5.93787">
        <ele>1521</ele>
        <time>2013-10-06T09:25:19Z</time>
      </trkpt>
      <trkpt lat="45.42462" lon="5.93809">
        <ele>1519</ele>
        <time>2013-10-06T09:25:35Z</time>
      </trkpt>
      <trkpt lat="45.42445" lon="5.93821">
        <ele>1514</ele>
        <time>2013-10-06T09:26:07Z</time>
      </trkpt>
      <trkpt lat="45.42427" lon="5.93811">
        <ele>1511</ele>
        <time>2013-10-06T09:26:25Z</time>
      </trkpt>
      <trkpt lat="45.42411" lon="5.93799">
        <ele>1496</ele>
        <time>2013-10-06T09:26:38Z</time>
      </trkpt>
      <trkpt lat="45.42396" lon="5.93784">
        <ele>1497</ele>
        <time>2013-10-06T09:26:56Z</time>
      </trkpt>
      <trkpt lat="45.42382" lon="5.93766">
        <ele>1497</ele>
        <time>2013-10-06T09:27:16Z</time>
      </trkpt>
      <trkpt lat="45.42364" lon="5.93761">
        <ele>1493</ele>
        <time>2013-10-06T09:27:40Z</time>
      </trkpt>
      <trkpt lat="45.42345" lon="5.93763">
        <ele>1491</ele>
        <time>2013-10-06T09:27:52Z</time>
      </trkpt>
      <trkpt lat="45.42327" lon="5.93756">
        <ele>1482</ele>
        <time>2013-10-06T09:28:09Z</time>
      </trkpt>
      <trkpt lat="45.42309" lon="5.93761">
        <ele>1472</ele>
        <time>2013-10-06T09:28:19Z</time>
      </trkpt>
      <trkpt lat="45.42292" lon="5.9377">
        <ele>1466</ele>
        <time>2013-10-06T09:28:37Z</time>
      </trkpt>
      <trkpt lat="45.42276" lon="5.93756">
        <ele>1465</ele>
        <time>2013-10-06T09:28:54Z</time>
      </trkpt>
      <trkpt lat="45.42256" lon="5.93757">
        <ele>1462</ele>
        <time>2013-10-06T09:29:07Z</time>
      </trkpt>
      <trkpt lat="45.4224" lon="5.93767">
        <ele>1450</ele>
        <time>2013-10-06T09:29:22Z</time>
      </trkpt>
      <trkpt lat="45.42222" lon="5.93756">
        <ele>1447</ele>
        <time>2013-10-06T09:29:42Z</time>
      </trkpt>
      <trkpt lat="45.42207" lon="5.93742">
        <ele>1458</ele>
        <time>2013-10-06T09:29:57Z</time>
      </trkpt>
      <trkpt lat="45.42188" lon="5.93739">
        <ele>1453</ele>
        <time>2013-10-06T09:30:12Z</time>
      </trkpt>
      <trkpt lat="45.42164" lon="5.93743">
        <ele>1438</ele>
        <time>2013-10-06T09:30:34Z</time>
      </trkpt>
      <trkpt lat="45.42146" lon="5.93745">
        <ele>1439</ele>
        <time>2013-10-06T09:30:41Z</time>
      </trkpt>
      <trkpt lat="45.42128" lon="5.93746">
        <ele>1439</ele>
        <time>2013-10-06T09:31:02Z</time>
      </trkpt>
      <trkpt lat="45.42109" lon="5.93743">
        <ele>1436</ele>
        <time>2013-10-06T09:31:12Z</time>
      </trkpt>
      <trkpt lat="45.42094" lon="5.93758">
        <ele>1422</ele>
        <time>2013-10-06T09:31:27Z</time>
      </trkpt>
    </trkseg>
  </trk>
</gpx>